Terminal Aerodrome Forecast
Issued by NWS Caribou, ME

Home | Current Version | Previous Version | Text Only | Print | Product List | Glossary On
Versions: 1 2 3 4 5 6 7 8 9 10 11 12 13 14 15 16 17 18 19 20 21
935
FTUS41 KCAR 101417 AAD
TAFCAR
TAF AMD
KCAR 101417Z 1014/1112 VRB03KT P6SM BKN060
     FM101800 23004KT P6SM BKN028
     FM102100 22004KT P6SM OVC020
     FM110000 VRB03KT P6SM VCSH OVC014
     FM110600 32004KT P6SM BKN020
     FM111000 32006KT P6SM BKN028=

USA.gov is the U.S. government's official web portal to all federal, state and local government web resources and services.